sensor_id;sensor_type;location;lat;lon;timestamp;pressure;altitude;pressure_sealevel;temperature;humidity
71107;BME280;58763;47.982;11.516;2022-08-21T00:00:10;94317.66;;;15.89;89.14
71107;BME280;58763;47.982;11.516;2022-08-21T00:02:36;94324.84;;;15.85;88.70
71107;BME280;58763;47.982;11.516;2022-08-21T00:05:03;94317.09;;;15.78;89.23
71107;BME280;58763;47.982;11.516;2022-08-21T00:07:29;94322.25;;;15.80;88.79
71107;BME280;58763;47.982;11.516;2022-08-21T00:09:54;94320.66;;;15.79;88.76
71107;BME280;58763;47.982;11.516;2022-08-21T00:12:20;94319.38;;;15.85;88.49
71107;BME280;58763;47.982;11.516;2022-08-21T00:14:45;94316.13;;;15.74;88.82
71107;BME280;58763;47.982;11.516;2022-08-21T00:17:11;94319.63;;;15.66;89.27
71107;BME280;58763;47.982;11.516;2022-08-21T00:19:36;94321.56;;;15.66;89.36
71107;BME280;58763;47.982;11.516;2022-08-21T00:22:02;94316.63;;;15.46;89.74
71107;BME280;58763;47.982;11.516;2022-08-21T00:24:28;94318.84;;;15.44;89.81
71107;BME280;58763;47.982;11.516;2022-08-21T00:26:53;94318.66;;;15.40;90.30
71107;BME280;58763;47.982;11.516;2022-08-21T00:29:19;94307.75;;;15.40;89.75
71107;BME280;58763;47.982;11.516;2022-08-21T00:31:44;94310.13;;;15.33;90.02
71107;BME280;58763;47.982;11.516;2022-08-21T00:34:11;94308.38;;;15.37;89.48
71107;BME280;58763;47.982;11.516;2022-08-21T00:36:37;94304.00;;;15.28;90.13
71107;BME280;58763;47.982;11.516;2022-08-21T00:39:05;94303.63;;;15.20;90.02
71107;BME280;58763;47.982;11.516;2022-08-21T00:41:31;94302.00;;;15.19;90.16
71107;BME280;58763;47.982;11.516;2022-08-21T00:43:57;94315.63;;;15.19;90.46
71107;BME280;58763;47.982;11.516;2022-08-21T00:46:22;94310.38;;;15.23;90.10
71107;BME280;58763;47.982;11.516;2022-08-21T00:48:48;94310.25;;;15.28;90.04
71107;BME280;58763;47.982;11.516;2022-08-21T00:51:17;94309.75;;;15.26;89.84
71107;BME280;58763;47.982;11.516;2022-08-21T00:53:51;94306.34;;;15.20;90.07
71107;BME280;58763;47.982;11.516;2022-08-21T00:56:18;94304.44;;;15.21;89.73
71107;BME280;58763;47.982;11.516;2022-08-21T00:58:45;94298.78;;;15.17;89.84
71107;BME280;58763;47.982;11.516;2022-08-21T01:01:11;94302.91;;;15.06;90.28
71107;BME280;58763;47.982;11.516;2022-08-21T01:03:38;94297.44;;;15.06;90.11
71107;BME280;58763;47.982;11.516;2022-08-21T01:06:04;94298.56;;;15.05;89.77
71107;BME280;58763;47.982;11.516;2022-08-21T01:08:31;94292.03;;;15.15;89.82
71107;BME280;58763;47.982;11.516;2022-08-21T01:10:58;94308.03;;;15.08;89.98
71107;BME280;58763;47.982;11.516;2022-08-21T01:13:25;94299.25;;;15.11;89.61
71107;BME280;58763;47.982;11.516;2022-08-21T01:15:54;94297.97;;;15.17;88.88
71107;BME280;58763;47.982;11.516;2022-08-21T01:18:20;94303.06;;;15.10;89.27
71107;BME280;58763;47.982;11.516;2022-08-21T01:21:16;94298.63;;;15.14;88.53
71107;BME280;58763;47.982;11.516;2022-08-21T01:23:45;94299.00;;;15.21;88.08
71107;BME280;58763;47.982;11.516;2022-08-21T01:26:12;94298.66;;;15.22;87.97
71107;BME280;58763;47.982;11.516;2022-08-21T01:28:44;94294.34;;;15.21;87.66
71107;BME280;58763;47.982;11.516;2022-08-21T01:31:12;94294.66;;;15.20;87.64
71107;BME280;58763;47.982;11.516;2022-08-21T01:33:40;94290.75;;;15.12;88.00
71107;BME280;58763;47.982;11.516;2022-08-21T01:36:05;94293.78;;;15.11;87.76
71107;BME280;58763;47.982;11.516;2022-08-21T01:38:32;94303.34;;;15.00;88.19
71107;BME280;58763;47.982;11.516;2022-08-21T01:40:58;94300.13;;;14.98;88.42
71107;BME280;58763;47.982;11.516;2022-08-21T01:43:24;94300.13;;;14.98;87.89
71107;BME280;58763;47.982;11.516;2022-08-21T01:45:49;94299.31;;;14.97;88.49
71107;BME280;58763;47.982;11.516;2022-08-21T01:48:15;94296.75;;;15.01;87.64
71107;BME280;58763;47.982;11.516;2022-08-21T01:50:40;94300.63;;;15.00;87.80
71107;BME280;58763;47.982;11.516;2022-08-21T01:53:06;94301.22;;;14.97;87.64
71107;BME280;58763;47.982;11.516;2022-08-21T01:55:31;94301.53;;;14.95;87.57
71107;BME280;58763;47.982;11.516;2022-08-21T01:57:58;94295.72;;;14.88;88.24
71107;BME280;58763;47.982;11.516;2022-08-21T02:00:25;94297.16;;;14.86;87.91
71107;BME280;58763;47.982;11.516;2022-08-21T02:02:51;94295.41;;;14.90;88.16
71107;BME280;58763;47.982;11.516;2022-08-21T02:05:18;94289.22;;;14.76;88.61
71107;BME280;58763;47.982;11.516;2022-08-21T02:07:47;94288.09;;;14.77;88.36
71107;BME280;58763;47.982;11.516;2022-08-21T02:10:16;94289.03;;;14.72;88.78
71107;BME280;58763;47.982;11.516;2022-08-21T02:12:42;94278.56;;;14.66;88.26
71107;BME280;58763;47.982;11.516;2022-08-21T02:15:08;94277.56;;;14.62;89.09
71107;BME280;58763;47.982;11.516;2022-08-21T02:18:01;94276.66;;;14.66;89.09
71107;BME280;58763;47.982;11.516;2022-08-21T02:20:30;94274.84;;;14.62;89.11
71107;BME280;58763;47.982;11.516;2022-08-21T02:22:56;94265.69;;;14.58;89.08
71107;BME280;58763;47.982;11.516;2022-08-21T02:25:24;94268.66;;;14.47;89.11
71107;BME280;58763;47.982;11.516;2022-08-21T02:27:50;94283.00;;;14.39;89.76
71107;BME280;58763;47.982;11.516;2022-08-21T02:30:22;94283.00;;;14.39;90.28
71107;BME280;58763;47.982;11.516;2022-08-21T02:32:49;94277.56;;;14.39;90.02
71107;BME280;58763;47.982;11.516;2022-08-21T02:35:14;94279.78;;;14.37;89.95
71107;BME280;58763;47.982;11.516;2022-08-21T02:37:49;94281.06;;;14.40;89.98
71107;BME280;58763;47.982;11.516;2022-08-21T02:40:17;94278.75;;;14.33;89.66
71107;BME280;58763;47.982;11.516;2022-08-21T02:42:44;94276.03;;;14.33;89.80
71107;BME280;58763;47.982;11.516;2022-08-21T02:45:11;94269.59;;;14.29;89.64
71107;BME280;58763;47.982;11.516;2022-08-21T02:47:37;94267.47;;;14.26;90.16
71107;BME280;58763;47.982;11.516;2022-08-21T02:50:04;94267.72;;;14.30;89.62
71107;BME280;58763;47.982;11.516;2022-08-21T02:52:29;94271.00;;;14.40;89.16
71107;BME280;58763;47.982;11.516;2022-08-21T02:54:54;94265.88;;;14.39;88.96
71107;BME280;58763;47.982;11.516;2022-08-21T02:57:20;94265.66;;;14.35;88.95
71107;BME280;58763;47.982;11.516;2022-08-21T02:59:45;94278.28;;;14.31;89.38
71107;BME280;58763;47.982;11.516;2022-08-21T03:02:12;94272.00;;;14.31;88.78
71107;BME280;58763;47.982;11.516;2022-08-21T03:04:38;94272.50;;;14.33;88.95
71107;BME280;58763;47.982;11.516;2022-08-21T03:07:03;94264.94;;;14.43;88.28
71107;BME280;58763;47.982;11.516;2022-08-21T03:09:29;94267.47;;;14.40;88.65
71107;BME280;58763;47.982;11.516;2022-08-21T03:11:54;94265.25;;;14.42;88.58
71107;BME280;58763;47.982;11.516;2022-08-21T03:14:19;94274.53;;;14.27;89.47
71107;BME280;58763;47.982;11.516;2022-08-21T03:16:45;94278.97;;;14.23;89.58
71107;BME280;58763;47.982;11.516;2022-08-21T03:19:11;94283.88;;;14.21;89.67
71107;BME280;58763;47.982;11.516;2022-08-21T03:21:36;94283.63;;;14.09;89.49
71107;BME280;58763;47.982;11.516;2022-08-21T03:24:02;94282.63;;;14.05;90.44
71107;BME280;58763;47.982;11.516;2022-08-21T03:26:27;94276.56;;;14.08;89.58
71107;BME280;58763;47.982;11.516;2022-08-21T03:28:53;94275.88;;;14.16;89.49
71107;BME280;58763;47.982;11.516;2022-08-21T03:31:19;94281.50;;;14.20;88.71
71107;BME280;58763;47.982;11.516;2022-08-21T03:33:46;94282.28;;;14.20;88.67
71107;BME280;58763;47.982;11.516;2022-08-21T03:36:12;94281.69;;;14.23;88.48
71107;BME280;58763;47.982;11.516;2022-08-21T03:38:38;94284.09;;;14.25;87.39
71107;BME280;58763;47.982;11.516;2022-08-21T03:41:05;94278.06;;;14.14;88.50
71107;BME280;58763;47.982;11.516;2022-08-21T03:43:31;94281.31;;;14.16;88.39
71107;BME280;58763;47.982;11.516;2022-08-21T03:45:58;94283.84;;;13.99;89.52
71107;BME280;58763;47.982;11.516;2022-08-21T03:48:25;94280.03;;;14.00;89.50
71107;BME280;58763;47.982;11.516;2022-08-21T03:50:51;94277.91;;;13.97;89.29
71107;BME280;58763;47.982;11.516;2022-08-21T03:53:17;94280.22;;;14.04;89.10
71107;BME280;58763;47.982;11.516;2022-08-21T03:55:44;94284.03;;;14.03;88.58
71107;BME280;58763;47.982;11.516;2022-08-21T03:58:10;94288.06;;;13.92;89.13
71107;BME280;58763;47.982;11.516;2022-08-21T04:00:36;94276.78;;;13.84;90.36
71107;BME280;58763;47.982;11.516;2022-08-21T04:03:02;94281.41;;;13.84;89.88
71107;BME280;58763;47.982;11.516;2022-08-21T04:05:28;94281.84;;;13.77;89.86
71107;BME280;58763;47.982;11.516;2022-08-21T04:07:55;94284.34;;;13.88;89.67
71107;BME280;58763;47.982;11.516;2022-08-21T04:10:21;94279.94;;;13.78;90.25
71107;BME280;58763;47.982;11.516;2022-08-21T04:12:47;94285.97;;;13.75;89.75
71107;BME280;58763;47.982;11.516;2022-08-21T04:15:12;94290.09;;;13.72;90.05
71107;BME280;58763;47.982;11.516;2022-08-21T04:17:38;94287.19;;;13.69;89.86
71107;BME280;58763;47.982;11.516;2022-08-21T04:20:04;94296.44;;;13.68;89.65
71107;BME280;58763;47.982;11.516;2022-08-21T04:22:29;94288.38;;;13.63;89.69
71107;BME280;58763;47.982;11.516;2022-08-21T04:24:55;94293.13;;;13.71;89.40
71107;BME280;58763;47.982;11.516;2022-08-21T04:27:20;94296.94;;;13.70;90.01
71107;BME280;58763;47.982;11.516;2022-08-21T04:29:45;94298.22;;;13.72;89.85
71107;BME280;58763;47.982;11.516;2022-08-21T04:32:11;94297.56;;;13.67;90.20
71107;BME280;58763;47.982;11.516;2022-08-21T04:34:36;94303.16;;;13.57;90.50
71107;BME280;58763;47.982;11.516;2022-08-21T04:37:02;94306.28;;;13.64;90.11
71107;BME280;58763;47.982;11.516;2022-08-21T04:39:27;94311.00;;;13.58;90.71
71107;BME280;58763;47.982;11.516;2022-08-21T04:41:52;94313.22;;;13.56;90.72
71107;BME280;58763;47.982;11.516;2022-08-21T04:44:18;94311.22;;;13.48;90.81
71107;BME280;58763;47.982;11.516;2022-08-21T04:46:43;94313.63;;;13.50;90.83
71107;BME280;58763;47.982;11.516;2022-08-21T04:49:09;94310.59;;;13.51;90.76
71107;BME280;58763;47.982;11.516;2022-08-21T04:51:36;94310.31;;;13.53;90.58
71107;BME280;58763;47.982;11.516;2022-08-21T04:54:09;94316.75;;;13.57;90.65
71107;BME280;58763;47.982;11.516;2022-08-21T04:56:40;94314.75;;;13.62;90.48
71107;BME280;58763;47.982;11.516;2022-08-21T04:59:12;94314.53;;;13.59;90.34
71107;BME280;58763;47.982;11.516;2022-08-21T05:01:39;94309.59;;;13.61;90.40
71107;BME280;58763;47.982;11.516;2022-08-21T05:04:08;94320.69;;;13.64;90.82
71107;BME280;58763;47.982;11.516;2022-08-21T05:06:37;94319.47;;;13.70;90.25
71107;BME280;58763;47.982;11.516;2022-08-21T05:09:04;94316.25;;;13.68;91.38
71107;BME280;58763;47.982;11.516;2022-08-21T05:11:31;94313.44;;;13.87;90.48
71107;BME280;58763;47.982;11.516;2022-08-21T05:13:57;94309.91;;;13.86;90.54
71107;BME280;58763;47.982;11.516;2022-08-21T05:16:22;94307.19;;;13.86;90.83
71107;BME280;58763;47.982;11.516;2022-08-21T05:18:48;94305.19;;;13.78;91.46
71107;BME280;58763;47.982;11.516;2022-08-21T05:21:13;94309.63;;;13.74;92.18
71107;BME280;58763;47.982;11.516;2022-08-21T05:23:39;94306.28;;;13.77;92.30
71107;BME280;58763;47.982;11.516;2022-08-21T05:26:04;94307.19;;;13.73;92.99
71107;BME280;58763;47.982;11.516;2022-08-21T05:28:30;94308.91;;;13.69;92.95
71107;BME280;58763;47.982;11.516;2022-08-21T05:30:56;94318.56;;;13.75;93.34
71107;BME280;58763;47.982;11.516;2022-08-21T05:33:22;94314.94;;;13.79;93.79
71107;BME280;58763;47.982;11.516;2022-08-21T05:35:50;94315.25;;;13.78;93.50
71107;BME280;58763;47.982;11.516;2022-08-21T05:38:17;94315.47;;;13.81;93.93
71107;BME280;58763;47.982;11.516;2022-08-21T05:40:43;94315.25;;;13.92;93.42
71107;BME280;58763;47.982;11.516;2022-08-21T05:43:09;94319.88;;;13.91;93.80
71107;BME280;58763;47.982;11.516;2022-08-21T05:45:34;94326.84;;;13.97;94.04
71107;BME280;58763;47.982;11.516;2022-08-21T05:48:07;94326.75;;;14.02;93.74
71107;BME280;58763;47.982;11.516;2022-08-21T05:50:33;94321.06;;;14.12;93.60
71107;BME280;58763;47.982;11.516;2022-08-21T05:53:00;94324.41;;;14.09;93.63
71107;BME280;58763;47.982;11.516;2022-08-21T05:55:26;94317.03;;;14.10;93.89
71107;BME280;58763;47.982;11.516;2022-08-21T05:57:51;94322.50;;;14.23;94.01
71107;BME280;58763;47.982;11.516;2022-08-21T06:00:17;94326.22;;;14.41;93.98
71107;BME280;58763;47.982;11.516;2022-08-21T06:02:43;94324.88;;;14.52;93.71
71107;BME280;58763;47.982;11.516;2022-08-21T06:05:08;94322.25;;;14.61;93.56
71107;BME280;58763;47.982;11.516;2022-08-21T06:07:34;94324.00;;;14.79;92.05
71107;BME280;58763;47.982;11.516;2022-08-21T06:09:59;94321.94;;;14.84;91.40
71107;BME280;58763;47.982;11.516;2022-08-21T06:12:25;94329.94;;;14.81;91.47
71107;BME280;58763;47.982;11.516;2022-08-21T06:14:50;94327.69;;;14.83;91.80
71107;BME280;58763;47.982;11.516;2022-08-21T06:17:17;94331.00;;;14.93;91.98
71107;BME280;58763;47.982;11.516;2022-08-21T06:19:43;94332.03;;;15.06;91.97
71107;BME280;58763;47.982;11.516;2022-08-21T06:22:08;94327.72;;;15.05;92.58
71107;BME280;58763;47.982;11.516;2022-08-21T06:24:34;94325.97;;;15.09;92.21
71107;BME280;58763;47.982;11.516;2022-08-21T06:27:07;94320.78;;;15.21;92.70
71107;BME280;58763;47.982;11.516;2022-08-21T06:29:33;94320.03;;;15.29;92.13
71107;BME280;58763;47.982;11.516;2022-08-21T06:31:59;94320.38;;;15.36;92.47
71107;BME280;58763;47.982;11.516;2022-08-21T06:34:25;94321.25;;;15.45;92.81
71107;BME280;58763;47.982;11.516;2022-08-21T06:36:51;94319.38;;;15.54;92.54
71107;BME280;58763;47.982;11.516;2022-08-21T06:39:16;94317.53;;;15.63;93.55
71107;BME280;58763;47.982;11.516;2022-08-21T06:41:42;94325.63;;;15.85;92.21
71107;BME280;58763;47.982;11.516;2022-08-21T06:44:07;94321.50;;;15.97;92.10
71107;BME280;58763;47.982;11.516;2022-08-21T06:46:33;94323.19;;;16.15;92.47
71107;BME280;58763;47.982;11.516;2022-08-21T06:48:59;94314.56;;;16.30;91.33
71107;BME280;58763;47.982;11.516;2022-08-21T06:51:25;94319.94;;;16.52;90.00
71107;BME280;58763;47.982;11.516;2022-08-21T06:53:51;94317.41;;;16.73;89.46
71107;BME280;58763;47.982;11.516;2022-08-21T06:56:17;94308.22;;;16.94;86.15
71107;BME280;58763;47.982;11.516;2022-08-21T06:58:44;94316.75;;;17.10;84.19
71107;BME280;58763;47.982;11.516;2022-08-21T07:01:10;94309.31;;;17.36;84.49
71107;BME280;58763;47.982;11.516;2022-08-21T07:03:38;94316.19;;;17.51;81.71
71107;BME280;58763;47.982;11.516;2022-08-21T07:06:05;94315.72;;;17.49;79.02
71107;BME280;58763;47.982;11.516;2022-08-21T07:08:31;94319.09;;;17.63;81.36
71107;BME280;58763;47.982;11.516;2022-08-21T07:10:58;94310.53;;;17.73;77.54
71107;BME280;58763;47.982;11.516;2022-08-21T07:13:24;94317.13;;;17.72;79.22
71107;BME280;58763;47.982;11.516;2022-08-21T07:15:50;94316.16;;;17.85;77.48
71107;BME280;58763;47.982;11.516;2022-08-21T07:18:16;94318.00;;;18.02;77.47
71107;BME280;58763;47.982;11.516;2022-08-21T07:20:42;94307.97;;;18.14;75.99
71107;BME280;58763;47.982;11.516;2022-08-21T07:23:23;94312.53;;;18.31;76.42
71107;BME280;58763;47.982;11.516;2022-08-21T07:25:50;94309.28;;;18.37;76.72
71107;BME280;58763;47.982;11.516;2022-08-21T07:28:15;94308.75;;;18.52;77.53
71107;BME280;58763;47.982;11.516;2022-08-21T07:30:41;94297.97;;;18.97;76.18
71107;BME280;58763;47.982;11.516;2022-08-21T07:33:06;94305.53;;;19.33;73.41
71107;BME280;58763;47.982;11.516;2022-08-21T07:35:32;94307.44;;;19.41;70.78
71107;BME280;58763;47.982;11.516;2022-08-21T07:37:58;94310.50;;;19.40;69.07
71107;BME280;58763;47.982;11.516;2022-08-21T07:40:24;94309.56;;;19.68;68.99
71107;BME280;58763;47.982;11.516;2022-08-21T07:42:49;94308.97;;;19.63;69.24
71107;BME280;58763;47.982;11.516;2022-08-21T07:45:20;94302.50;;;19.67;68.81
71107;BME280;58763;47.982;11.516;2022-08-21T07:47:46;94308.03;;;20.16;69.55
71107;BME280;58763;47.982;11.516;2022-08-21T07:50:12;94298.69;;;20.41;67.35
71107;BME280;58763;47.982;11.516;2022-08-21T07:52:39;94299.59;;;20.69;67.77
71107;BME280;58763;47.982;11.516;2022-08-21T07:55:06;94297.38;;;20.87;68.39
71107;BME280;58763;47.982;11.516;2022-08-21T07:57:32;94285.00;;;21.05;64.48
71107;BME280;58763;47.982;11.516;2022-08-21T07:59:57;94288.28;;;21.10;66.06
71107;BME280;58763;47.982;11.516;2022-08-21T08:02:28;94289.97;;;21.27;64.63
71107;BME280;58763;47.982;11.516;2022-08-21T08:04:58;94294.56;;;21.51;65.13
71107;BME280;58763;47.982;11.516;2022-08-21T08:07:24;94287.25;;;21.43;65.38
71107;BME280;58763;47.982;11.516;2022-08-21T08:09:49;94283.06;;;21.61;64.21
71107;BME280;58763;47.982;11.516;2022-08-21T08:12:15;94284.50;;;21.43;64.03
71107;BME280;58763;47.982;11.516;2022-08-21T08:14:40;94288.47;;;21.29;62.86
71107;BME280;58763;47.982;11.516;2022-08-21T08:17:06;94284.41;;;21.39;64.81
71107;BME280;58763;47.982;11.516;2022-08-21T08:19:31;94283.63;;;21.54;64.99
71107;BME280;58763;47.982;11.516;2022-08-21T08:21:56;94280.03;;;21.66;64.91
71107;BME280;58763;47.982;11.516;2022-08-21T08:24:22;94276.25;;;21.70;63.23
71107;BME280;58763;47.982;11.516;2022-08-21T08:26:47;94274.72;;;21.73;62.94
71107;BME280;58763;47.982;11.516;2022-08-21T08:29:13;94277.41;;;21.85;59.71
71107;BME280;58763;47.982;11.516;2022-08-21T08:31:38;94277.16;;;21.90;60.48
71107;BME280;58763;47.982;11.516;2022-08-21T08:34:04;94280.41;;;21.80;60.97
71107;BME280;58763;47.982;11.516;2022-08-21T08:36:35;94274.91;;;21.80;61.26
71107;BME280;58763;47.982;11.516;2022-08-21T08:39:03;94279.69;;;21.83;61.77
71107;BME280;58763;47.982;11.516;2022-08-21T08:41:29;94271.22;;;21.88;59.70
71107;BME280;58763;47.982;11.516;2022-08-21T08:44:01;94274.44;;;21.78;60.77
71107;BME280;58763;47.982;11.516;2022-08-21T08:46:46;94283.63;;;21.82;59.87
71107;BME280;58763;47.982;11.516;2022-08-21T08:52:17;94272.84;;;21.89;59.17
71107;BME280;58763;47.982;11.516;2022-08-21T08:54:48;94275.00;;;21.83;58.96
71107;BME280;58763;47.982;11.516;2022-08-21T08:57:20;94274.91;;;21.80;55.91
71107;BME280;58763;47.982;11.516;2022-08-21T08:59:50;94273.13;;;21.72;57.25
71107;BME280;58763;47.982;11.516;2022-08-21T09:02:17;94277.84;;;21.44;58.47
71107;BME280;58763;47.982;11.516;2022-08-21T09:04:45;94276.63;;;21.57;56.76
71107;BME280;58763;47.982;11.516;2022-08-21T09:15:33;94278.22;;;21.85;57.68
71107;BME280;58763;47.982;11.516;2022-08-21T09:18:28;94269.78;;;21.94;55.38
71107;BME280;58763;47.982;11.516;2022-08-21T09:21:43;94268.13;;;22.05;54.22
71107;BME280;58763;47.982;11.516;2022-08-21T09:26:18;94264.81;;;22.15;52.66
71107;BME280;58763;47.982;11.516;2022-08-21T09:28:45;94265.91;;;22.26;51.91
71107;BME280;58763;47.982;11.516;2022-08-21T09:31:22;94267.94;;;22.29;54.07
71107;BME280;58763;47.982;11.516;2022-08-21T09:33:48;94271.50;;;22.30;53.40
71107;BME280;58763;47.982;11.516;2022-08-21T09:36:25;94270.22;;;22.43;52.16
71107;BME280;58763;47.982;11.516;2022-08-21T09:38:53;94264.44;;;22.48;52.71
71107;BME280;58763;47.982;11.516;2022-08-21T09:41:29;94263.03;;;22.54;52.02
71107;BME280;58763;47.982;11.516;2022-08-21T09:43:55;94264.09;;;22.49;50.78
71107;BME280;58763;47.982;11.516;2022-08-21T09:46:23;94262.75;;;22.43;51.72
71107;BME280;58763;47.982;11.516;2022-08-21T09:48:51;94265.94;;;22.45;51.39
71107;BME280;58763;47.982;11.516;2022-08-21T09:51:21;94264.34;;;22.60;51.93
71107;BME280;58763;47.982;11.516;2022-08-21T09:53:51;94266.19;;;22.72;51.82
71107;BME280;58763;47.982;11.516;2022-08-21T09:56:50;94259.72;;;22.99;50.52
71107;BME280;58763;47.982;11.516;2022-08-21T09:59:35;94257.03;;;23.02;49.42
71107;BME280;58763;47.982;11.516;2022-08-21T10:02:21;94248.84;;;23.25;51.25
71107;BME280;58763;47.982;11.516;2022-08-21T10:04:52;94252.53;;;23.32;50.65
71107;BME280;58763;47.982;11.516;2022-08-21T10:07:22;94255.69;;;23.50;49.33
71107;BME280;58763;47.982;11.516;2022-08-21T10:10:08;94253.91;;;23.80;50.04
71107;BME280;58763;47.982;11.516;2022-08-21T10:15:19;94246.25;;;24.16;48.36
71107;BME280;58763;47.982;11.516;2022-08-21T10:20:40;94243.94;;;24.18;47.51
71107;BME280;58763;47.982;11.516;2022-08-21T10:26:26;94239.53;;;24.39;47.83
71107;BME280;58763;47.982;11.516;2022-08-21T10:29:23;94235.13;;;24.35;47.17
71107;BME280;58763;47.982;11.516;2022-08-21T10:40:34;94245.25;;;24.04;52.14
71107;BME280;58763;47.982;11.516;2022-08-21T10:48:37;94239.97;;;23.73;51.57
71107;BME280;58763;47.982;11.516;2022-08-21T10:51:13;94237.34;;;23.80;51.64
71107;BME280;58763;47.982;11.516;2022-08-21T10:53:59;94227.09;;;24.03;50.62
71107;BME280;58763;47.982;11.516;2022-08-21T10:56:30;94231.81;;;24.03;46.67
71107;BME280;58763;47.982;11.516;2022-08-21T10:59:33;94237.06;;;24.08;47.55
71107;BME280;58763;47.982;11.516;2022-08-21T11:02:13;94235.69;;;24.21;46.14
71107;BME280;58763;47.982;11.516;2022-08-21T11:04:49;94230.16;;;23.98;46.45
71107;BME280;58763;47.982;11.516;2022-08-21T11:07:27;94234.38;;;23.92;49.37
71107;BME280;58763;47.982;11.516;2022-08-21T11:09:55;94229.78;;;23.77;51.10
71107;BME280;58763;47.982;11.516;2022-08-21T11:12:41;94231.50;;;23.85;52.47
71107;BME280;58763;47.982;11.516;2022-08-21T11:15:24;94226.47;;;23.91;50.59
71107;BME280;58763;47.982;11.516;2022-08-21T11:18:01;94223.41;;;23.73;50.74
71107;BME280;58763;47.982;11.516;2022-08-21T11:20:38;94222.22;;;23.74;50.89
71107;BME280;58763;47.982;11.516;2022-08-21T11:23:25;94223.22;;;23.85;51.20
71107;BME280;58763;47.982;11.516;2022-08-21T11:26:00;94212.63;;;24.10;51.38
71107;BME280;58763;47.982;11.516;2022-08-21T11:28:41;94218.53;;;24.35;49.30
71107;BME280;58763;47.982;11.516;2022-08-21T11:34:21;94210.38;;;24.42;47.99
71107;BME280;58763;47.982;11.516;2022-08-21T11:37:16;94202.50;;;24.44;48.05
71107;BME280;58763;47.982;11.516;2022-08-21T11:39:50;94199.41;;;24.49;48.90
71107;BME280;58763;47.982;11.516;2022-08-21T11:51:10;94208.41;;;23.52;50.01
71107;BME280;58763;47.982;11.516;2022-08-21T11:53:46;94209.69;;;23.58;51.19
71107;BME280;58763;47.982;11.516;2022-08-21T11:56:25;94207.63;;;23.74;50.37
71107;BME280;58763;47.982;11.516;2022-08-21T11:59:01;94207.69;;;23.77;49.51
71107;BME280;58763;47.982;11.516;2022-08-21T12:01:32;94212.16;;;23.85;50.18
71107;BME280;58763;47.982;11.516;2022-08-21T12:04:08;94198.91;;;23.94;49.54
71107;BME280;58763;47.982;11.516;2022-08-21T12:06:37;94197.63;;;23.88;47.38
71107;BME280;58763;47.982;11.516;2022-08-21T12:09:07;94191.91;;;24.00;47.54
71107;BME280;58763;47.982;11.516;2022-08-21T12:11:46;94192.03;;;24.30;47.09
71107;BME280;58763;47.982;11.516;2022-08-21T12:14:15;94197.19;;;24.58;45.09
71107;BME280;58763;47.982;11.516;2022-08-21T12:16:43;94184.19;;;24.88;44.68
71107;BME280;58763;47.982;11.516;2022-08-21T12:24:36;94177.25;;;25.68;40.77
71107;BME280;58763;47.982;11.516;2022-08-21T12:27:29;94171.91;;;25.89;40.64
71107;BME280;58763;47.982;11.516;2022-08-21T12:30:01;94171.22;;;26.02;38.08
71107;BME280;58763;47.982;11.516;2022-08-21T12:32:30;94167.50;;;26.25;39.04
71107;BME280;58763;47.982;11.516;2022-08-21T12:35:17;94175.56;;;26.44;37.27
71107;BME280;58763;47.982;11.516;2022-08-21T12:37:56;94165.38;;;26.62;37.72
71107;BME280;58763;47.982;11.516;2022-08-21T12:40:31;94158.34;;;26.75;37.66
71107;BME280;58763;47.982;11.516;2022-08-21T12:43:01;94154.72;;;26.67;38.32
71107;BME280;58763;47.982;11.516;2022-08-21T12:45:39;94162.59;;;26.65;39.75
71107;BME280;58763;47.982;11.516;2022-08-21T12:48:13;94159.44;;;26.60;40.01
71107;BME280;58763;47.982;11.516;2022-08-21T12:54:00;94148.09;;;26.28;39.13
71107;BME280;58763;47.982;11.516;2022-08-21T12:56:31;94153.03;;;26.05;40.43
71107;BME280;58763;47.982;11.516;2022-08-21T12:59:07;94149.81;;;25.96;40.77
71107;BME280;58763;47.982;11.516;2022-08-21T13:01:39;94143.09;;;25.97;39.67
71107;BME280;58763;47.982;11.516;2022-08-21T13:04:16;94143.47;;;25.95;39.47
71107;BME280;58763;47.982;11.516;2022-08-21T13:06:45;94141.97;;;26.05;39.00
71107;BME280;58763;47.982;11.516;2022-08-21T13:09:14;94138.81;;;26.06;39.44
71107;BME280;58763;47.982;11.516;2022-08-21T13:11:43;94135.19;;;25.99;39.88
71107;BME280;58763;47.982;11.516;2022-08-21T13:14:20;94135.69;;;25.68;41.81
71107;BME280;58763;47.982;11.516;2022-08-21T13:16:53;94135.06;;;25.45;42.92
71107;BME280;58763;47.982;11.516;2022-08-21T13:19:18;94133.75;;;24.98;42.35
71107;BME280;58763;47.982;11.516;2022-08-21T13:21:45;94131.16;;;25.12;42.27
71107;BME280;58763;47.982;11.516;2022-08-21T13:24:16;94140.09;;;25.35;42.22
71107;BME280;58763;47.982;11.516;2022-08-21T13:26:41;94130.88;;;25.58;41.04
71107;BME280;58763;47.982;11.516;2022-08-21T13:29:09;94129.47;;;25.78;41.13
71107;BME280;58763;47.982;11.516;2022-08-21T13:31:37;94125.56;;;25.82;41.34
71107;BME280;58763;47.982;11.516;2022-08-21T13:34:05;94129.97;;;25.90;41.76
71107;BME280;58763;47.982;11.516;2022-08-21T13:36:36;94128.50;;;26.07;40.61
71107;BME280;58763;47.982;11.516;2022-08-21T13:39:04;94123.38;;;26.05;42.43
71107;BME280;58763;47.982;11.516;2022-08-21T13:41:34;94119.44;;;26.06;42.40
71107;BME280;58763;47.982;11.516;2022-08-21T13:46:31;94120.84;;;26.37;40.34
71107;BME280;58763;47.982;11.516;2022-08-21T13:48:58;94112.50;;;26.37;39.29
71107;BME280;58763;47.982;11.516;2022-08-21T13:51:24;94103.47;;;26.47;39.80
71107;BME280;58763;47.982;11.516;2022-08-21T13:53:53;94104.06;;;26.78;40.02
71107;BME280;58763;47.982;11.516;2022-08-21T13:56:32;94100.88;;;26.76;38.44
71107;BME280;58763;47.982;11.516;2022-08-21T13:58:59;94108.06;;;26.84;38.95